Time;durP1;ratioP1;P1;durP2;ratioP2;P2;SDS_P1;SDS_P2;PMS_P1;PMS_P2;Temp;Humidity;BMP_temperature;BMP_pressure;BME280_temperature;BME280_humidity;BME280_pressure;Samples;Min_cycle;Max_cycle;Signal;HPM_P1;HPM_P2
2022/08/24 00:01:55;;;;;;;2.50;0.30;;;26.60;96.70;;;;;;5043903;28;20355;-74
2022/08/24 00:04:25;;;;;;;0.50;0.30;;;26.60;96.70;;;;;;5040992;28;20058;-74
2022/08/24 00:06:55;;;;;;;0.50;0.30;;;26.60;96.70;;;;;;5053380;28;20045;-74
2022/08/24 00:09:23;;;;;;;0.70;0.22;;;26.60;96.70;;;;;;5037542;28;20125;-74
2022/08/24 00:11:51;;;;;;;1.60;0.40;;;26.70;96.70;;;;;;5039410;28;20045;-74
2022/08/24 00:14:19;;;;;;;0.40;0.20;;;26.70;96.70;;;;;;5039652;28;20491;-74
2022/08/24 00:16:47;;;;;;;0.20;0.20;;;26.70;96.70;;;;;;5046196;28;20068;-74
2022/08/24 00:19:16;;;;;;;1.92;0.30;;;26.60;96.70;;;;;;5062329;28;20040;-74
2022/08/24 00:21:45;;;;;;;2.13;0.40;;;26.60;96.70;;;;;;5055495;28;20041;-74
2022/08/24 00:24:13;;;;;;;0.50;0.40;;;26.60;96.70;;;;;;5056042;28;20060;-74
2022/08/24 00:26:41;;;;;;;1.63;0.40;;;26.70;96.70;;;;;;5042379;28;20076;-74
2022/08/24 00:29:09;;;;;;;0.60;0.25;;;26.80;96.70;;;;;;5042300;28;20795;-74
2022/08/24 00:31:37;;;;;;;1.73;0.40;;;26.70;96.70;;;;;;5036023;28;20037;-74
2022/08/24 00:34:05;;;;;;;1.50;0.50;;;26.50;96.70;;;;;;5056098;28;20040;-74
2022/08/24 00:36:34;;;;;;;0.30;0.10;;;26.50;96.70;;;;;;5041634;28;20049;-74
2022/08/24 00:39:04;;;;;;;2.78;0.40;;;26.50;96.70;;;;;;5041223;28;20568;-74
2022/08/24 00:41:33;;;;;;;0.63;0.30;;;26.50;96.70;;;;;;5061473;28;20072;-74
2022/08/24 00:44:03;;;;;;;0.40;0.22;;;26.50;96.70;;;;;;5024984;28;20093;-74
2022/08/24 00:46:42;;;;;;;0.10;0.10;;;26.50;96.70;;;;;;5061094;28;20486;-74
2022/08/24 00:49:17;;;;;;;2.03;0.40;;;26.40;96.70;;;;;;5041025;28;20044;-74
2022/08/24 00:51:54;;;;;;;2.25;0.25;;;26.30;96.70;;;;;;5039815;28;20053;-74
2022/08/24 00:54:27;;;;;;;0.40;0.30;;;26.30;96.70;;;;;;5043122;28;20151;-74
2022/08/24 00:56:59;;;;;;;0.95;0.20;;;26.30;96.70;;;;;;5050450;28;20441;-74
2022/08/24 00:59:33;;;;;;;3.63;0.30;;;26.30;96.70;;;;;;5054058;28;20045;-74
2022/08/24 01:02:04;;;;;;;0.85;0.40;;;26.30;96.70;;;;;;5051141;28;20124;-75
2022/08/24 01:04:48;;;;;;;0.88;0.30;;;26.20;96.70;;;;;;5037074;28;20435;-74
2022/08/24 01:07:16;;;;;;;0.60;0.20;;;26.20;96.70;;;;;;5055893;28;20517;-73
2022/08/24 01:09:46;;;;;;;1.77;0.50;;;26.30;96.70;;;;;;5033667;28;20045;-74
2022/08/24 01:12:16;;;;;;;0.15;0.10;;;26.30;96.70;;;;;;5056594;28;20510;-74
2022/08/24 01:14:44;;;;;;;0.50;0.30;;;26.40;96.70;;;;;;5062438;28;20548;-74
2022/08/24 01:20:07;;;;;;;0.32;0.20;;;26.40;96.70;;;;;;5056971;28;20428;-74
2022/08/24 01:23:04;;;;;;;1.70;0.20;;;26.40;96.70;;;;;;5044803;28;20090;-74
2022/08/24 01:25:35;;;;;;;0.47;0.30;;;26.40;96.70;;;;;;5020041;28;20083;-74
2022/08/24 01:28:11;;;;;;;1.15;0.30;;;26.30;96.70;;;;;;5050982;28;20437;-74
2022/08/24 01:30:42;;;;;;;1.60;0.47;;;26.30;96.70;;;;;;5041261;28;20118;-74
2022/08/24 01:33:22;;;;;;;0.80;0.20;;;26.30;96.70;;;;;;5042201;28;20331;-74
2022/08/24 01:35:56;;;;;;;0.73;0.30;;;26.20;96.70;;;;;;5057257;28;20046;-74
2022/08/24 01:38:25;;;;;;;0.98;0.52;;;26.20;96.70;;;;;;5063129;28;20098;-74
2022/08/24 01:40:57;;;;;;;0.93;0.30;;;26.20;96.70;;;;;;5035483;28;20342;-74
2022/08/24 01:43:25;;;;;;;0.50;0.30;;;26.20;96.70;;;;;;5020269;28;20045;-74
2022/08/24 01:45:56;;;;;;;2.33;0.40;;;25.80;96.70;;;;;;5059954;28;20406;-74
2022/08/24 01:48:24;;;;;;;0.40;0.40;;;25.70;96.70;;;;;;5038820;28;20109;-74
2022/08/24 01:50:53;;;;;;;0.55;0.40;;;25.60;96.70;;;;;;5056886;28;20055;-74
2022/08/24 01:53:23;;;;;;;3.33;0.60;;;25.40;96.70;;;;;;5026893;28;20078;-74
2022/08/24 01:55:52;;;;;;;0.55;0.40;;;25.40;96.70;;;;;;5038927;28;20053;-74
2022/08/24 01:58:21;;;;;;;0.73;0.50;;;25.40;96.70;;;;;;5034892;28;20102;-74
2022/08/24 02:00:49;;;;;;;2.53;0.40;;;25.30;96.70;;;;;;5023307;28;20063;-74
2022/08/24 02:03:17;;;;;;;0.88;0.40;;;25.30;96.70;;;;;;5037796;28;20052;-74
2022/08/24 02:05:52;;;;;;;1.17;0.55;;;25.40;96.70;;;;;;5004544;28;20080;-74
2022/08/24 02:08:21;;;;;;;2.17;0.55;;;25.60;96.70;;;;;;5014152;28;20131;-74
2022/08/24 02:10:51;;;;;;;7.35;0.85;;;25.60;96.70;;;;;;5020468;28;20053;-74
2022/08/24 02:13:27;;;;;;;0.63;0.35;;;25.50;96.70;;;;;;5006082;28;20815;-74
2022/08/24 02:15:56;;;;;;;3.53;0.60;;;25.40;96.70;;;;;;5022109;28;21193;-74
2022/08/24 02:18:24;;;;;;;1.80;0.30;;;25.30;96.70;;;;;;5004604;28;20041;-75
2022/08/24 02:20:52;;;;;;;0.45;0.30;;;25.40;96.70;;;;;;5021645;28;20633;-74
2022/08/24 02:23:21;;;;;;;1.65;0.40;;;25.40;96.70;;;;;;5013846;28;20054;-74
2022/08/24 02:25:49;;;;;;;2.17;0.40;;;25.50;96.70;;;;;;5016373;28;20456;-74
2022/08/24 02:28:19;;;;;;;0.43;0.20;;;25.50;96.70;;;;;;5003564;28;20436;-74
2022/08/24 02:30:49;;;;;;;0.60;0.40;;;25.30;96.70;;;;;;4996872;28;20045;-74
2022/08/24 02:33:17;;;;;;;1.02;0.30;;;25.20;96.70;;;;;;5017717;28;20050;-74
2022/08/24 02:35:45;;;;;;;1.33;0.30;;;25.20;96.70;;;;;;5017319;28;20104;-74
2022/08/24 02:38:13;;;;;;;0.32;0.30;;;25.10;96.70;;;;;;5016732;28;20053;-74
2022/08/24 02:40:43;;;;;;;2.65;0.47;;;25.00;96.70;;;;;;5016772;28;20519;-74
2022/08/24 02:43:11;;;;;;;1.83;0.45;;;24.80;96.70;;;;;;5020709;28;20052;-74
2022/08/24 02:45:40;;;;;;;3.05;0.50;;;24.80;96.70;;;;;;5014256;28;20044;-74
2022/08/24 02:48:10;;;;;;;0.45;0.40;;;24.70;96.70;;;;;;5022621;28;20053;-75
2022/08/24 02:50:39;;;;;;;1.30;0.50;;;24.90;96.70;;;;;;5020863;28;20570;-74
2022/08/24 02:53:07;;;;;;;2.05;0.40;;;25.10;96.70;;;;;;5021125;28;20141;-74
2022/08/24 02:55:38;;;;;;;2.85;0.40;;;24.90;96.70;;;;;;5023276;28;20077;-73
2022/08/24 02:58:07;;;;;;;1.60;0.40;;;25.00;96.70;;;;;;5020021;28;20096;-75
2022/08/24 03:00:37;;;;;;;2.00;0.40;;;25.00;96.70;;;;;;5003169;28;20140;-73
2022/08/24 03:03:07;;;;;;;2.28;0.40;;;25.00;96.70;;;;;;5003513;28;20517;-74
2022/08/24 03:05:38;;;;;;;3.17;0.68;;;24.90;96.70;;;;;;5040924;28;20423;-74
2022/08/24 03:08:07;;;;;;;1.23;0.55;;;24.80;96.70;;;;;;5039859;28;20632;-74
2022/08/24 03:10:35;;;;;;;1.50;0.32;;;24.50;96.70;;;;;;5035282;28;20090;-74
2022/08/24 03:13:04;;;;;;;2.10;0.30;;;24.40;96.70;;;;;;5040639;28;20078;-74
2022/08/24 03:15:32;;;;;;;1.85;0.43;;;24.40;96.70;;;;;;5035605;28;20041;-74
2022/08/24 03:18:01;;;;;;;1.42;0.45;;;24.20;96.70;;;;;;5041232;28;20048;-74
2022/08/24 03:20:30;;;;;;;2.03;0.40;;;24.30;96.70;;;;;;5026875;28;20059;-74
2022/08/24 03:23:00;;;;;;;0.82;0.43;;;24.60;96.70;;;;;;5021965;28;20437;-74
2022/08/24 03:25:28;;;;;;;1.10;0.40;;;24.50;96.70;;;;;;5044088;28;20041;-74
2022/08/24 03:27:57;;;;;;;0.75;0.40;;;24.60;96.70;;;;;;5052601;28;20049;-74
2022/08/24 03:30:25;;;;;;;0.52;0.47;;;24.70;96.70;;;;;;5036617;28;20040;-74
2022/08/24 03:32:53;;;;;;;1.65;0.30;;;24.70;96.70;;;;;;5040337;28;20044;-74
2022/08/24 03:35:22;;;;;;;2.22;0.77;;;24.70;96.70;;;;;;5041615;28;20044;-75
2022/08/24 03:37:50;;;;;;;1.15;0.40;;;24.60;96.70;;;;;;5070130;28;20048;-74
2022/08/24 03:40:22;;;;;;;2.00;0.40;;;24.40;96.70;;;;;;5053150;28;20044;-75
2022/08/24 03:42:55;;;;;;;0.37;0.30;;;24.50;96.70;;;;;;5038857;28;20604;-73
2022/08/24 03:45:23;;;;;;;0.90;0.40;;;24.50;96.70;;;;;;5029663;28;20139;-74
2022/08/24 03:47:52;;;;;;;4.53;0.50;;;24.30;96.70;;;;;;5034838;28;20099;-73
2022/08/24 03:50:20;;;;;;;1.00;0.47;;;24.30;96.70;;;;;;5032794;28;20052;-74
2022/08/24 03:52:49;;;;;;;0.75;0.40;;;24.40;96.70;;;;;;5027156;28;20468;-74
2022/08/24 03:55:20;;;;;;;1.80;0.50;;;24.40;96.70;;;;;;5022630;28;20064;-74
2022/08/24 03:57:48;;;;;;;0.70;0.38;;;24.50;96.70;;;;;;5040587;28;20075;-75
2022/08/24 04:00:17;;;;;;;2.55;0.40;;;24.50;96.70;;;;;;5021956;28;20047;-74
2022/08/24 04:02:54;;;;;;;2.47;0.55;;;24.50;96.70;;;;;;5038398;28;20542;-74
2022/08/24 04:05:25;;;;;;;1.48;0.80;;;24.20;96.70;;;;;;5053099;28;20055;-74
2022/08/24 04:07:53;;;;;;;2.42;0.70;;;24.10;96.70;;;;;;5016602;28;20061;-74
2022/08/24 04:10:23;;;;;;;1.65;0.45;;;24.30;96.70;;;;;;5036195;28;20045;-74
2022/08/24 04:12:51;;;;;;;1.23;0.40;;;24.20;96.70;;;;;;5036666;28;20056;-74
2022/08/24 04:15:28;;;;;;;1.17;0.40;;;24.30;96.70;;;;;;5039044;28;20521;-74
2022/08/24 04:17:57;;;;;;;0.60;0.40;;;24.40;96.70;;;;;;5030206;28;20446;-75
2022/08/24 04:20:27;;;;;;;1.98;0.57;;;24.40;96.70;;;;;;5019243;28;20188;-74
2022/08/24 04:22:56;;;;;;;0.55;0.30;;;24.40;96.70;;;;;;5039030;28;20040;-73
2022/08/24 04:25:26;;;;;;;2.70;0.60;;;24.30;96.70;;;;;;5036380;28;20040;-74
2022/08/24 04:27:54;;;;;;;1.33;0.60;;;24.20;96.70;;;;;;5035422;28;20508;-74
2022/08/24 04:30:22;;;;;;;0.77;0.38;;;24.30;96.70;;;;;;5032804;28;20045;-73
2022/08/24 04:33:03;;;;;;;0.57;0.45;;;24.30;96.70;;;;;;5031700;28;20048;-73
2022/08/24 04:35:35;;;;;;;1.38;0.50;;;24.30;96.70;;;;;;5035708;28;20057;-74
2022/08/24 04:38:03;;;;;;;0.85;0.43;;;24.10;96.70;;;;;;5037029;28;20046;-73
2022/08/24 04:40:33;;;;;;;2.35;0.50;;;24.30;96.70;;;;;;5072092;28;20041;-74
2022/08/24 04:43:03;;;;;;;2.22;0.43;;;24.10;96.70;;;;;;5036553;28;20734;-74
2022/08/24 04:45:37;;;;;;;0.75;0.40;;;23.90;96.70;;;;;;5038488;28;20817;-74
2022/08/24 04:48:06;;;;;;;1.50;0.40;;;24.10;96.70;;;;;;5027565;28;20056;-74
2022/08/24 04:50:35;;;;;;;1.85;0.63;;;24.20;96.70;;;;;;5026031;28;20041;-73
2022/08/24 04:53:04;;;;;;;0.82;0.50;;;24.20;96.70;;;;;;5047128;28;20072;-74
2022/08/24 04:55:42;;;;;;;2.25;0.30;;;24.20;96.70;;;;;;5045115;28;20147;-74
2022/08/24 04:58:11;;;;;;;2.22;0.65;;;24.10;96.70;;;;;;5039462;28;20044;-73
2022/08/24 05:00:39;;;;;;;1.63;0.60;;;24.00;96.70;;;;;;5044149;28;20041;-74
2022/08/24 05:03:07;;;;;;;1.80;0.40;;;24.00;96.70;;;;;;5022582;28;20084;-74
2022/08/24 05:05:40;;;;;;;2.55;0.57;;;23.90;96.70;;;;;;5013293;28;20053;-74
2022/08/24 05:08:09;;;;;;;0.77;0.40;;;23.80;96.70;;;;;;5008052;28;20052;-74
2022/08/24 05:10:40;;;;;;;1.35;0.30;;;23.90;96.70;;;;;;4993344;28;20422;-74
2022/08/24 05:13:09;;;;;;;0.77;0.40;;;23.90;96.70;;;;;;5020677;28;20053;-72
2022/08/24 05:15:41;;;;;;;2.03;0.30;;;24.10;96.70;;;;;;5006450;28;20564;-72
2022/08/24 05:18:12;;;;;;;1.58;0.50;;;24.10;96.70;;;;;;5027089;28;20048;-72
2022/08/24 05:20:40;;;;;;;2.47;0.40;;;24.00;96.70;;;;;;4994860;28;20049;-71
2022/08/24 05:23:09;;;;;;;1.10;0.50;;;24.00;96.70;;;;;;5017718;28;20096;-72
2022/08/24 05:25:41;;;;;;;1.13;0.40;;;24.10;96.70;;;;;;5014332;28;20050;-73
2022/08/24 05:28:09;;;;;;;2.15;0.45;;;24.30;96.70;;;;;;5024615;28;20135;-72
2022/08/24 05:30:52;;;;;;;2.58;0.80;;;24.30;96.70;;;;;;5004892;28;20181;-72
2022/08/24 05:33:20;;;;;;;2.55;0.50;;;24.20;96.70;;;;;;5005341;28;20052;-71
2022/08/24 05:35:48;;;;;;;2.00;0.50;;;24.20;96.70;;;;;;5010109;28;20045;-72
2022/08/24 05:38:16;;;;;;;3.17;0.60;;;24.20;96.70;;;;;;5027642;28;20041;-72
2022/08/24 05:40:46;;;;;;;3.20;0.60;;;24.30;96.70;;;;;;5017775;28;20041;-72
2022/08/24 05:43:15;;;;;;;0.85;0.30;;;24.40;96.70;;;;;;5020537;28;20053;-73
2022/08/24 05:45:43;;;;;;;1.55;0.43;;;24.40;96.70;;;;;;4999297;28;20117;-73
2022/08/24 05:48:11;;;;;;;2.00;0.60;;;24.60;96.70;;;;;;5017031;28;20503;-72
2022/08/24 05:51:07;;;;;;;0.93;0.50;;;24.40;96.70;;;;;;5001143;28;20100;-74
2022/08/24 05:53:44;;;;;;;2.17;0.57;;;24.50;96.70;;;;;;5006104;28;20042;-76
2022/08/24 05:56:17;;;;;;;2.58;0.60;;;24.50;96.70;;;;;;5002993;28;20049;-76
2022/08/24 05:58:45;;;;;;;2.00;0.60;;;24.50;96.70;;;;;;5017619;28;20149;-76
2022/08/24 06:01:16;;;;;;;1.73;0.60;;;24.40;96.70;;;;;;5016964;28;20698;-76
2022/08/24 06:03:45;;;;;;;1.38;0.70;;;24.40;96.70;;;;;;5013990;28;20073;-76
2022/08/24 06:06:15;;;;;;;2.83;0.85;;;24.40;96.70;;;;;;5019270;28;20053;-75
2022/08/24 06:08:49;;;;;;;2.92;1.05;;;24.50;96.70;;;;;;5016760;28;20053;-76
2022/08/24 06:11:23;;;;;;;3.00;1.23;;;24.60;96.70;;;;;;5015317;28;20104;-78
2022/08/24 06:14:01;;;;;;;3.67;2.70;;;24.50;96.70;;;;;;5015170;28;20038;-75
2022/08/24 06:16:34;;;;;;;;;;;24.60;96.70;;;;;;5017413;28;20042;-74
2022/08/24 06:19:04;;;;;;;5.05;3.20;;;24.60;96.70;;;;;;5014986;28;19929;-75
2022/08/24 06:21:33;;;;;;;4.60;2.85;;;24.50;96.70;;;;;;5018492;28;20170;-73
2022/08/24 06:24:01;;;;;;;8.02;3.97;;;24.30;96.70;;;;;;5011692;28;20072;-74
2022/08/24 06:29:18;;;;;;;9.68;2.35;;;24.30;96.70;;;;;;5019108;28;20053;-75
2022/08/24 06:31:50;;;;;;;4.95;2.13;;;24.50;96.70;;;;;;5013026;28;20068;-75
2022/08/24 06:34:24;;;;;;;4.55;1.92;;;24.60;96.70;;;;;;5018267;28;20563;-73
2022/08/24 06:36:53;;;;;;;5.70;1.80;;;24.60;96.70;;;;;;5018359;28;20396;-74
2022/08/24 06:39:25;;;;;;;4.10;2.00;;;24.70;96.70;;;;;;5000330;28;20068;-75
2022/08/24 06:41:59;;;;;;;4.32;1.70;;;24.70;96.70;;;;;;5015688;28;20637;-74
2022/08/24 06:44:32;;;;;;;4.53;1.80;;;24.90;96.70;;;;;;5017470;28;20050;-76
2022/08/24 06:47:31;;;;;;;4.80;1.80;;;25.10;96.70;;;;;;5015746;28;20590;-76
2022/08/24 06:50:01;;;;;;;2.47;1.65;;;25.20;96.70;;;;;;4998660;28;20065;-76
2022/08/24 06:52:30;;;;;;;4.18;2.05;;;25.10;96.70;;;;;;5018205;28;20507;-76
2022/08/24 06:54:58;;;;;;;4.55;1.27;;;25.10;96.70;;;;;;5037438;28;20045;-74
2022/08/24 06:57:30;;;;;;;6.53;1.50;;;25.30;96.70;;;;;;5014714;28;20045;-74
2022/08/24 06:59:58;;;;;;;2.80;1.30;;;25.40;96.70;;;;;;5005408;28;20045;-75
2022/08/24 07:02:41;;;;;;;2.08;1.27;;;25.50;96.70;;;;;;5017874;28;20037;-75
2022/08/24 07:05:10;;;;;;;3.17;1.40;;;25.60;96.70;;;;;;5013955;28;20123;-76
2022/08/24 07:08:02;;;;;;;6.22;3.10;;;25.70;96.70;;;;;;5016015;28;20049;-76
2022/08/24 07:10:32;;;;;;;3.97;1.90;;;25.90;96.70;;;;;;5000528;28;20068;-75
2022/08/24 07:13:02;;;;;;;2.33;1.02;;;26.00;96.70;;;;;;5001554;28;20057;-75
2022/08/24 07:15:31;;;;;;;2.60;0.90;;;26.10;96.70;;;;;;5018714;28;20044;-77
2022/08/24 07:18:12;;;;;;;1.40;1.00;;;26.20;96.70;;;;;;5003186;28;20164;-76
2022/08/24 07:20:43;;;;;;;1.25;0.80;;;26.30;96.70;;;;;;5016267;28;20034;-75
2022/08/24 07:23:21;;;;;;;1.50;0.98;;;26.40;96.70;;;;;;5014500;28;20049;-75
2022/08/24 07:26:11;;;;;;;3.78;0.82;;;26.50;96.70;;;;;;5018908;28;20617;-75
2022/08/24 07:28:58;;;;;;;1.00;0.35;;;26.60;96.70;;;;;;4998763;28;20185;-75
2022/08/24 07:31:27;;;;;;;0.90;0.50;;;26.70;96.70;;;;;;5004859;28;20050;-76
2022/08/24 07:34:10;;;;;;;1.48;0.57;;;26.80;96.70;;;;;;5018262;28;20238;-73
2022/08/24 07:36:42;;;;;;;1.73;0.47;;;26.90;96.70;;;;;;5012440;28;20081;-74
2022/08/24 07:39:12;;;;;;;0.52;0.40;;;27.00;96.70;;;;;;5016386;28;20104;-74
2022/08/24 07:41:42;;;;;;;1.20;0.45;;;27.10;96.70;;;;;;5013627;28;20100;-75
2022/08/24 07:44:32;;;;;;;1.45;0.52;;;27.10;96.70;;;;;;5016972;28;20037;-75
2022/08/24 07:47:01;;;;;;;0.95;0.50;;;27.10;96.70;;;;;;5016415;28;20048;-74
2022/08/24 07:49:47;;;;;;;;;;;27.30;96.70;;;;;;5014848;28;20125;-75
2022/08/24 07:52:15;;;;;;;1.35;0.40;;;27.30;96.70;;;;;;5016861;28;19929;-75
2022/08/24 07:54:44;;;;;;;0.52;0.32;;;27.40;96.70;;;;;;5000339;28;20499;-76
2022/08/24 07:57:12;;;;;;;0.85;0.50;;;27.50;96.70;;;;;;5004563;28;20045;-75
2022/08/24 07:59:42;;;;;;;0.80;0.30;;;27.50;96.70;;;;;;5014781;28;20402;-75
2022/08/24 08:02:10;;;;;;;0.47;0.30;;;27.50;96.70;;;;;;5014407;28;20057;-75
2022/08/24 08:04:40;;;;;;;0.90;0.40;;;27.60;96.70;;;;;;4997321;28;20534;-76
2022/08/24 08:07:09;;;;;;;1.20;0.43;;;27.70;96.70;;;;;;5017636;28;20517;-75
2022/08/24 08:09:38;;;;;;;1.90;0.60;;;27.80;96.70;;;;;;5014550;28;20060;-76
2022/08/24 08:12:08;;;;;;;2.70;0.40;;;27.70;96.70;;;;;;5018730;28;20041;-76
2022/08/24 08:14:47;;;;;;;0.90;0.32;;;27.80;96.70;;;;;;5024083;28;20041;-76
2022/08/24 08:17:16;;;;;;;1.45;0.57;;;27.90;96.70;;;;;;5021774;28;20051;-75
2022/08/24 08:19:44;;;;;;;1.60;0.50;;;28.00;96.70;;;;;;5002529;28;20042;-75
2022/08/24 08:25:18;;;;;;;0.50;0.30;;;28.00;96.70;;;;;;5015459;28;20059;-75
2022/08/24 08:27:46;;;;;;;1.63;0.60;;;28.10;96.70;;;;;;5018889;28;20129;-75
2022/08/24 08:30:17;;;;;;;1.05;0.32;;;28.10;96.70;;;;;;5003134;28;20042;-75
2022/08/24 08:32:45;;;;;;;2.45;0.47;;;28.20;96.70;;;;;;5017710;28;20071;-75
2022/08/24 08:35:13;;;;;;;1.42;0.50;;;28.30;96.70;;;;;;5008320;28;20056;-75
2022/08/24 08:37:42;;;;;;;2.05;0.40;;;28.40;96.70;;;;;;5014701;28;20088;-74
2022/08/24 08:40:23;;;;;;;1.67;0.43;;;28.50;96.70;;;;;;5018342;28;20048;-75
2022/08/24 08:43:00;;;;;;;1.60;0.57;;;28.60;96.70;;;;;;5026700;28;20461;-75
2022/08/24 08:45:52;;;;;;;2.10;0.40;;;28.70;96.70;;;;;;5022709;28;20225;-75
2022/08/24 08:49:23;;;;;;;0.85;0.60;;;28.70;96.70;;;;;;4980937;28;20061;-74
2022/08/24 08:52:25;;;;;;;0.88;0.47;;;28.50;96.70;;;;;;5014244;28;20504;-75
2022/08/24 08:55:11;;;;;;;1.20;0.60;;;28.70;96.70;;;;;;5023908;28;20055;-76
2022/08/24 08:57:55;;;;;;;0.98;0.50;;;28.80;96.70;;;;;;5022625;28;20053;-75
2022/08/24 09:00:31;;;;;;;0.68;0.50;;;28.90;96.70;;;;;;5025292;28;20144;-74
2022/08/24 09:03:31;;;;;;;1.00;0.50;;;29.10;96.70;;;;;;5015909;28;20046;-75
2022/08/24 09:06:39;;;;;;;1.60;0.75;;;28.90;96.70;;;;;;5051799;28;20061;-75
2022/08/24 09:09:28;;;;;;;0.55;0.50;;;28.90;96.70;;;;;;5043411;28;20049;-76
2022/08/24 09:12:11;;;;;;;0.85;0.60;;;29.10;96.70;;;;;;5052353;28;20053;-75
2022/08/24 09:15:13;;;;;;;0.82;0.60;;;29.30;96.70;;;;;;5061713;28;20094;-76
2022/08/24 09:17:59;;;;;;;1.52;0.57;;;29.30;96.70;;;;;;5022987;28;20143;-75
2022/08/24 09:21:02;;;;;;;2.00;0.60;;;29.20;96.70;;;;;;5026987;28;20111;-76
2022/08/24 09:23:43;;;;;;;0.60;0.40;;;29.20;96.70;;;;;;5045088;28;20048;-75
2022/08/24 09:26:23;;;;;;;0.88;0.60;;;29.20;96.70;;;;;;5038853;28;20601;-76
2022/08/24 09:29:03;;;;;;;0.82;0.50;;;29.20;96.70;;;;;;5041154;28;20052;-76
2022/08/24 09:31:52;;;;;;;2.38;0.70;;;29.10;96.70;;;;;;5030693;28;20569;-76
2022/08/24 09:34:33;;;;;;;1.80;0.40;;;29.40;96.70;;;;;;5044440;28;20052;-76
2022/08/24 09:37:19;;;;;;;2.28;0.52;;;29.50;96.70;;;;;;5041103;28;20147;-76
2022/08/24 09:40:01;;;;;;;2.22;0.60;;;29.60;96.70;;;;;;5056357;28;20513;-77
2022/08/24 09:42:57;;;;;;;1.95;0.63;;;29.80;96.70;;;;;;5039771;28;20131;-76
2022/08/24 09:45:46;;;;;;;1.13;0.60;;;29.90;96.70;;;;;;5027692;28;20049;-75
2022/08/24 09:48:55;;;;;;;2.88;0.50;;;29.80;96.70;;;;;;5051343;28;20049;-74
2022/08/24 09:51:51;;;;;;;1.50;0.60;;;29.90;96.70;;;;;;5036638;28;20292;-74
2022/08/24 09:54:54;;;;;;;1.05;0.70;;;30.10;96.70;;;;;;5021427;28;20068;-74
2022/08/24 09:57:43;;;;;;;1.73;0.50;;;30.00;96.70;;;;;;4995117;28;20044;-75
2022/08/24 10:00:30;;;;;;;1.25;0.80;;;30.00;96.70;;;;;;5035655;28;20044;-75
2022/08/24 10:03:04;;;;;;;1.73;0.60;;;30.00;96.70;;;;;;5071756;28;20049;-75
2022/08/24 10:05:53;;;;;;;0.90;0.55;;;30.10;96.70;;;;;;5053300;28;20060;-75
2022/08/24 10:08:33;;;;;;;2.72;0.70;;;30.30;96.70;;;;;;5037676;28;20532;-74
2022/08/24 10:11:11;;;;;;;1.88;0.65;;;30.40;96.70;;;;;;5057331;28;20045;-75
2022/08/24 10:13:54;;;;;;;3.33;0.57;;;30.60;96.70;;;;;;5033247;28;20037;-75
2022/08/24 10:16:35;;;;;;;1.70;0.65;;;30.90;96.70;;;;;;5063689;28;20129;-76
2022/08/24 10:19:45;;;;;;;2.35;0.60;;;30.80;96.70;;;;;;5051240;28;20073;-74
2022/08/24 10:22:29;;;;;;;3.30;1.02;;;31.00;96.70;;;;;;5039790;28;20148;-75
2022/08/24 10:25:21;;;;;;;1.08;0.50;;;30.90;96.70;;;;;;5040827;28;20143;-74
2022/08/24 10:27:59;;;;;;;1.98;0.50;;;30.70;96.70;;;;;;5051084;28;20067;-75
2022/08/24 10:30:57;;;;;;;7.18;1.10;;;30.70;96.70;;;;;;5026564;28;20440;-76
2022/08/24 10:33:31;;;;;;;1.02;0.50;;;30.60;96.70;;;;;;5035501;28;20502;-75
2022/08/24 10:36:34;;;;;;;3.13;0.50;;;30.40;96.70;;;;;;5056765;28;20072;-75
2022/08/24 10:39:39;;;;;;;2.30;0.60;;;30.60;96.70;;;;;;5026650;28;20044;-75
2022/08/24 10:46:09;;;;;;;1.38;0.50;;;31.10;96.70;;;;;;5041174;28;20054;-76
2022/08/24 10:49:12;;;;;;;1.77;0.60;;;31.40;96.70;;;;;;5058109;28;20082;-76
2022/08/24 10:51:59;;;;;;;1.83;0.60;;;31.30;96.70;;;;;;5067814;28;20589;-75
2022/08/24 10:54:31;;;;;;;1.38;0.60;;;31.30;96.70;;;;;;5042114;28;20073;-75
2022/08/24 10:57:05;;;;;;;2.05;0.52;;;31.60;96.70;;;;;;5022727;28;20049;-75
2022/08/24 10:59:50;;;;;;;1.08;0.70;;;31.80;96.70;;;;;;5060044;28;20049;-75
2022/08/24 11:02:30;;;;;;;1.75;0.88;;;32.10;96.70;;;;;;5041475;28;20955;-75
2022/08/24 11:05:04;;;;;;;1.05;0.80;;;31.90;96.70;;;;;;5063975;28;20048;-74
2022/08/24 11:07:32;;;;;;;1.33;0.60;;;31.90;96.70;;;;;;5035419;28;20097;-73
2022/08/24 11:10:05;;;;;;;3.97;0.80;;;31.90;96.70;;;;;;5052501;28;20122;-74
2022/08/24 11:12:37;;;;;;;0.82;0.60;;;32.10;96.70;;;;;;5055283;28;20033;-73
2022/08/24 11:15:19;;;;;;;0.70;0.60;;;32.30;96.70;;;;;;5056243;28;20049;-72
2022/08/24 11:17:57;;;;;;;0.50;0.47;;;32.20;96.70;;;;;;5038271;28;20040;-75
2022/08/24 11:20:29;;;;;;;1.05;0.70;;;32.40;96.70;;;;;;5051245;28;20098;-75
2022/08/24 11:23:02;;;;;;;2.53;0.50;;;32.10;96.70;;;;;;5042425;28;20075;-75
2022/08/24 11:25:32;;;;;;;0.60;0.40;;;31.50;96.70;;;;;;5054407;28;20068;-75
2022/08/24 11:28:05;;;;;;;2.38;0.65;;;31.30;96.70;;;;;;5058818;28;20040;-76
2022/08/24 11:30:38;;;;;;;1.20;0.57;;;31.30;96.70;;;;;;5024148;28;20430;-75
2022/08/24 11:33:25;;;;;;;0.77;0.43;;;31.30;96.70;;;;;;5037400;28;20049;-75
2022/08/24 11:35:55;;;;;;;0.80;0.63;;;31.30;96.70;;;;;;5039788;28;20143;-76
2022/08/24 11:38:26;;;;;;;0.73;0.43;;;31.50;96.70;;;;;;5042122;28;20589;-75
2022/08/24 11:41:02;;;;;;;1.05;0.50;;;31.90;96.70;;;;;;5046043;28;20049;-75
2022/08/24 11:43:53;;;;;;;1.30;0.80;;;31.80;96.70;;;;;;5037242;28;20319;-75
2022/08/24 11:46:31;;;;;;;1.33;0.50;;;31.70;96.70;;;;;;5035028;28;20048;-75
2022/08/24 11:49:09;;;;;;;0.70;0.52;;;32.10;96.70;;;;;;5033801;28;20537;-75
2022/08/24 11:51:49;;;;;;;1.33;0.50;;;32.40;96.70;;;;;;5043549;28;20056;-76
2022/08/24 11:54:24;;;;;;;1.55;0.50;;;32.80;96.70;;;;;;5044384;28;20064;-75
2022/08/24 11:57:06;;;;;;;0.88;0.57;;;33.00;96.70;;;;;;5063968;28;20044;-75
2022/08/24 11:59:52;;;;;;;1.55;0.50;;;32.90;96.40;;;;;;5044962;28;20633;-75
2022/08/24 12:02:28;;;;;;;0.90;0.73;;;32.90;96.40;;;;;;5065024;28;20041;-75
2022/08/24 12:05:05;;;;;;;0.95;0.68;;;33.20;95.90;;;;;;5050268;28;20136;-75
2022/08/24 12:07:49;;;;;;;2.05;0.60;;;33.00;96.50;;;;;;5057576;28;20055;-76
2022/08/24 12:10:27;;;;;;;1.90;0.55;;;32.80;96.60;;;;;;5042011;28;20072;-76
2022/08/24 12:13:05;;;;;;;1.25;0.52;;;32.40;96.50;;;;;;5048417;28;20151;-75
2022/08/24 12:15:43;;;;;;;2.97;0.60;;;32.30;96.70;;;;;;5057072;28;20051;-75
2022/08/24 12:18:27;;;;;;;3.08;0.65;;;32.00;96.70;;;;;;5040830;28;20041;-75
2022/08/24 12:20:56;;;;;;;1.95;0.40;;;32.20;96.70;;;;;;5047908;28;20040;-75
2022/08/24 12:23:32;;;;;;;0.88;0.45;;;32.40;96.70;;;;;;5060707;28;20049;-75
2022/08/24 12:26:06;;;;;;;0.85;0.57;;;32.50;96.60;;;;;;5056754;28;20136;-75
2022/08/24 12:28:37;;;;;;;1.17;0.73;;;32.40;96.40;;;;;;5046296;28;20072;-75
2022/08/24 12:31:16;;;;;;;2.13;0.60;;;32.30;95.70;;;;;;5044940;28;20056;-75
2022/08/24 12:33:48;;;;;;;2.13;0.60;;;32.50;96.60;;;;;;5056887;28;20135;-75
2022/08/24 12:36:24;;;;;;;1.77;0.63;;;32.70;96.00;;;;;;5042540;28;20053;-75
2022/08/24 12:39:05;;;;;;;2.58;0.55;;;33.30;95.30;;;;;;5042466;28;20090;-75
2022/08/24 12:41:37;;;;;;;2.55;0.57;;;33.00;95.20;;;;;;5044258;28;20065;-75
2022/08/24 12:44:11;;;;;;;1.80;0.70;;;33.00;95.40;;;;;;5064757;28;20044;-75
2022/08/24 12:46:43;;;;;;;0.40;0.30;;;33.20;95.20;;;;;;5040776;28;20570;-75
2022/08/24 12:49:18;;;;;;;1.63;0.60;;;33.40;94.50;;;;;;5056626;28;20552;-75
2022/08/24 12:52:19;;;;;;;8.85;1.00;;;33.50;93.70;;;;;;5052456;28;20151;-75
2022/08/24 12:55:04;;;;;;;0.80;0.70;;;33.70;93.40;;;;;;5058030;28;20045;-76
2022/08/24 12:57:43;;;;;;;1.60;0.50;;;33.60;93.80;;;;;;5053147;28;20044;-75
2022/08/24 13:00:25;;;;;;;1.88;0.70;;;33.40;93.50;;;;;;5062189;28;20072;-75
2022/08/24 13:02:57;;;;;;;1.45;0.60;;;33.40;93.80;;;;;;5052757;28;21581;-75
2022/08/24 13:05:39;;;;;;;0.88;0.50;;;33.50;93.20;;;;;;5058333;28;20084;-75
2022/08/24 13:08:16;;;;;;;0.88;0.50;;;33.50;93.30;;;;;;5053183;28;20051;-75
2022/08/24 13:10:58;;;;;;;2.17;0.65;;;33.50;93.00;;;;;;5051254;28;20076;-75
2022/08/24 13:13:42;;;;;;;1.23;0.50;;;33.40;92.30;;;;;;5058657;28;20045;-75
2022/08/24 13:16:30;;;;;;;1.08;0.57;;;33.10;92.30;;;;;;5045830;28;20044;-75
2022/08/24 13:19:15;;;;;;;6.30;0.82;;;33.30;93.10;;;;;;5023680;28;20171;-75
2022/08/24 13:21:51;;;;;;;1.13;0.60;;;33.50;92.80;;;;;;5042959;28;20409;-75
2022/08/24 13:24:56;;;;;;;0.40;0.40;;;33.70;91.80;;;;;;5059804;28;20072;-75
2022/08/24 13:28:10;;;;;;;1.85;0.47;;;33.90;92.00;;;;;;5055297;28;20455;-75
2022/08/24 13:31:08;;;;;;;0.82;0.40;;;33.90;91.00;;;;;;5033571;28;20080;-75
2022/08/24 13:33:40;;;;;;;0.50;0.40;;;33.80;91.00;;;;;;5060422;28;20499;-75
2022/08/24 13:36:37;;;;;;;0.60;0.45;;;33.90;90.80;;;;;;5053314;28;20052;-75
2022/08/24 13:39:36;;;;;;;1.10;0.40;;;33.80;90.40;;;;;;5036165;28;20049;-75
2022/08/24 13:42:17;;;;;;;1.60;0.60;;;33.90;90.80;;;;;;5038846;28;20061;-75
2022/08/24 13:45:11;;;;;;;0.82;0.40;;;33.80;89.70;;;;;;5063390;28;20047;-75